Claire — PCUG — position and weather

sailwx.info

Track history (hours):
 
Tides and Currents Weather Stations Pressure Air Temp Water Temp Dewpoint Dewpoint Depression Visibility Wind Speed Wind Dir Waves Ship Positions

Claire

Last reported at 2017-Sep-18 11:20 UTC. Time now 2017-Sep-23 05:59 UTC.
Position N 54°56' E 015°13'.

Length 90 m; draft 4 m.

Type: Cargo ship. MMSI: 244790234.

Date/timePositionNaut miles runAvg speedWind from/ knotsBaromVisibWave heightAir tempDewpointWater temp
2017-Sep-18 11:20N 54°56' E 015°13'411.2
2017-Sep-18 11:00N 54°55' E 015°07'611.2
2017-Sep-18 10:30N 54°55' E 014°57'611.2
2017-Sep-18 10:00N 54°55' E 014°47'611.2
2017-Sep-18 09:30N 54°55' E 014°37'611.4
2017-Sep-18 09:00N 54°55' E 014°28'1311.4
2017-Sep-18 07:51N 54°55' E 014°05'511.1
2017-Sep-18 07:24N 54°54' E 013°56'611.3
2017-Sep-18 06:52N 54°54' E 013°46'1211.3
2017-Sep-18 05:46N 54°52' E 013°24'511.4
2017-Sep-18 05:20N 54°50' E 013°16'611.4
2017-Sep-18 04:49N 54°49' E 013°06'311.3
2017-Sep-18 04:30N 54°48' E 013°00'811.2
2017-Sep-18 03:48N 54°45' E 012°47'311.0
2017-Sep-18 03:30N 54°44' E 012°42'1111.2
2017-Sep-18 02:32N 54°38' E 012°26'011.2
2017-Sep-18 02:30N 54°38' E 012°26'810.7
2017-Sep-18 01:45N 54°32' E 012°17'411.2
2017-Sep-18 01:24N 54°28' E 012°15'1410.0
2017-Sep-18 00:02N 54°24' E 011°52'011.0
2017-Sep-17 23:59N 54°24' E 011°51'510.3
2017-Sep-17 23:30N 54°25' E 011°43'611.4
2017-Sep-17 23:00N 54°28' E 011°34'611.2
2017-Sep-17 22:30N 54°30' E 011°25'510.9
2017-Sep-17 22:00N 54°33' E 011°17'510.4
2017-Sep-17 21:30N 54°34' E 011°09'510.7
2017-Sep-17 21:00N 54°35' E 010°59'611.7
2017-Sep-17 20:30N 54°34' E 010°49'611.9
2017-Sep-17 20:00N 54°33' E 010°39'55 5.6
2017-Sep-17 10:07N 54°04' E 009°19'1 8.4
2017-Sep-17 09:59N 54°03' E 009°18'4 8.2
2017-Sep-17 09:30N 53°59' E 009°17'4 8.2
2017-Sep-17 09:00N 53°56' E 009°13'4 7.2
2017-Sep-17 08:30N 53°54' E 009°09'0 0.0
2017-Sep-17 08:00N 53°54' E 009°09'2 3.0
2017-Sep-17 07:30N 53°53' E 009°06'1 1.5
2017-Sep-17 07:00N 53°53' E 009°05'4 7.2
2017-Sep-17 06:30N 53°51' E 008°60'612.7
2017-Sep-17 06:00N 53°50' E 008°49'611.3
2017-Sep-17 05:30N 53°54' E 008°42'612.0
2017-Sep-17 05:00N 53°58' E 008°34'612.1
2017-Sep-17 04:30N 53°59' E 008°24'612.8
2017-Sep-17 04:00N 53°59' E 008°13'510.2
2017-Sep-17 03:30N 53°59' E 008°05'5 9.7
2017-Sep-17 03:00N 53°57' E 007°57'5 9.7
2017-Sep-17 02:30N 53°56' E 007°49'6 9.4
2017-Sep-17 01:52N 53°55' E 007°39'4 9.5
2017-Sep-17 01:29N 53°54' E 007°33'6 9.4
2017-Sep-17 00:52N 53°53' E 007°23'4 9.4
2017-Sep-17 00:27N 53°52' E 007°17'7710.0
2017-Sep-16 16:45N 53°30' E 005°12'313.5
2017-Sep-16 16:31N 53°29' E 005°07'713.8
2017-Sep-16 16:01N 53°26' E 004°56'713.6
2017-Sep-16 15:30N 53°24' E 004°46'2013.3
2017-Sep-16 13:58N 53°06' E 004°28'713.9
2017-Sep-16 13:29N 53°00' E 004°22'11411.1
2017-Sep-16 03:11N 51°33' E 002°22'2 8.6
2017-Sep-16 02:58N 51°32' E 002°20'4 8.8
2017-Sep-16 02:30N 51°28' E 002°16'5 9.2
2017-Sep-16 02:00N 51°25' E 002°12'5 9.8
2017-Sep-16 01:30N 51°20' E 002°09'5 9.8
2017-Sep-16 01:00N 51°16' E 002°05'5 9.3
2017-Sep-16 00:30N 51°13' E 001°59'5 9.8
2017-Sep-16 00:00N 51°10' E 001°52'510.1
2017-Sep-15 23:31N 51°08' E 001°46'510.5
2017-Sep-15 23:00N 51°05' E 001°39'510.9
2017-Sep-15 22:31N 51°01' E 001°33'711.5
2017-Sep-15 21:53N 50°55' E 001°25'5911.3
2017-Sep-15 16:37N 50°22' E 000°08'413.2
2017-Sep-15 16:20N 50°21' E 000°02'513.1
2017-Sep-15 15:58N 50°20' W 000°05'6512.1
2017-Sep-15 10:37N 50°14' W 001°46'310.0
2017-Sep-15 10:21N 50°14' W 001°50'4010.1
2017-Sep-15 06:22N 50°11' W 002°52'411.3
2017-Sep-15 06:00N 50°10' W 002°59'611.0
2017-Sep-15 05:30N 50°09' W 003°07'611.0
2017-Sep-15 05:00N 50°08' W 003°15'611.3
2017-Sep-15 04:30N 50°07' W 003°24'611.4
2017-Sep-15 04:00N 50°06' W 003°33'611.6
2017-Sep-15 03:30N 50°05' W 003°41'611.7
2017-Sep-15 03:00N 50°03' W 003°50'611.6
2017-Sep-15 02:30N 50°02' W 003°59'611.5
2017-Sep-15 02:00N 50°00' W 004°08'611.5
2017-Sep-15 01:30N 49°59' W 004°17'611.5
2017-Sep-15 01:00N 49°58' W 004°25'611.5
2017-Sep-15 00:30N 49°57' W 004°34'611.6
2017-Sep-15 00:00N 49°55' W 004°43'1311.4
2017-Sep-14 22:53N 49°53' W 005°02'137 9.4
2017-Sep-14 08:13N 51°54' W 006°45'211.0
2017-Sep-14 08:00N 51°56' W 006°47'611.1
2017-Sep-14 07:30N 52°00' W 006°52'611.0
2017-Sep-14 07:00N 52°05' W 006°56'5 9.6
2017-Sep-14 06:30N 52°10' W 006°58'5 9.2
2017-Sep-14 06:00N 52°15' W 006°59'2 4.0
2017-Sep-14 05:25N 52°16' W 007°02'0 0.0
2017-Sep-14 04:58N 52°16' W 007°02'0 0.0
2017-Sep-14 04:25N 52°16' W 007°02'0 0.0
2017-Sep-14 03:58N 52°16' W 007°02'0 0.0
2017-Sep-14 03:25N 52°16' W 007°02'0 0.0
2017-Sep-14 02:58N 52°16' W 007°02'0 0.0
2017-Sep-14 02:28N 52°16' W 007°02'0 0.0
2017-Sep-14 01:58N 52°16' W 007°02'0 0.0
2017-Sep-14 01:28N 52°16' W 007°02'0 0.0
2017-Sep-14 00:58N 52°16' W 007°02'0 0.0
2017-Sep-14 00:28N 52°16' W 007°02'0 0.0
2017-Sep-13 23:58N 52°16' W 007°02'0 0.0
2017-Sep-13 23:25N 52°16' W 007°02'0 0.0
2017-Sep-13 22:55N 52°16' W 007°02'0 0.0
2017-Sep-13 22:22N 52°16' W 007°02'0 0.0
2017-Sep-13 21:55N 52°16' W 007°02'0 0.0
2017-Sep-13 21:28N 52°16' W 007°02'0 0.0
2017-Sep-13 20:55N 52°16' W 007°02'0 0.0
2017-Sep-13 20:28N 52°16' W 007°02'0 0.0
2017-Sep-13 19:58N 52°16' W 007°02'0 0.0
2017-Sep-13 19:28N 52°16' W 007°02'0 0.0
2017-Sep-13 18:49N 52°16' W 007°02'0 0.0
2017-Sep-13 18:25N 52°16' W 007°02'0 0.0
2017-Sep-13 17:55N 52°16' W 007°02'0 0.0
2017-Sep-13 17:28N 52°16' W 007°02'0 0.0
2017-Sep-13 16:55N 52°16' W 007°02'0 0.0
2017-Sep-13 16:28N 52°16' W 007°02'0 0.0
2017-Sep-13 15:55N 52°16' W 007°02'0 0.0
2017-Sep-13 15:28N 52°16' W 007°02'0 0.0
2017-Sep-13 14:55N 52°16' W 007°02'0 0.0
2017-Sep-13 14:25N 52°16' W 007°02'0 0.0
2017-Sep-13 13:58N 52°16' W 007°02'0 0.0
2017-Sep-13 13:28N 52°16' W 007°02'0 0.0
2017-Sep-13 12:55N 52°16' W 007°02'0 0.0
2017-Sep-13 12:28N 52°16' W 007°02'0 0.0
2017-Sep-13 11:55N 52°16' W 007°02'0 0.0
2017-Sep-13 11:28N 52°16' W 007°02'0 0.0
2017-Sep-13 10:58N 52°16' W 007°02'0 0.0
2017-Sep-13 10:28N 52°16' W 007°02'0 0.0
2017-Sep-13 09:58N 52°16' W 007°02'0 0.0
2017-Sep-13 09:25N 52°16' W 007°02'0 0.0
2017-Sep-13 08:58N 52°16' W 007°02'0 0.0
2017-Sep-13 08:25N 52°16' W 007°02'0 0.0
2017-Sep-13 07:55N 52°16' W 007°02'0 0.0
2017-Sep-13 07:28N 52°16' W 007°02'0 0.0
2017-Sep-13 06:55N 52°16' W 007°02'0 0.0
2017-Sep-13 06:28N 52°16' W 007°02'0 0.0
2017-Sep-13 05:58N 52°16' W 007°02'0 0.0
2017-Sep-13 05:28N 52°16' W 007°02'0 0.0
2017-Sep-13 04:58N 52°16' W 007°02'0 0.0
2017-Sep-13 04:28N 52°16' W 007°02'0 0.0
2017-Sep-13 03:58N 52°16' W 007°02'0 0.0
2017-Sep-13 03:25N 52°16' W 007°02'0 0.0
2017-Sep-13 02:58N 52°16' W 007°02'0 0.0
2017-Sep-13 02:28N 52°16' W 007°02'0 0.0
2017-Sep-13 01:55N 52°16' W 007°02'0 0.0
2017-Sep-13 01:28N 52°16' W 007°02'0 0.0
2017-Sep-13 00:58N 52°16' W 007°02'0 0.0
2017-Sep-13 00:25N 52°16' W 007°02'0 0.0
2017-Sep-13 00:00N 52°16' W 007°02'0 0.3
2017-Sep-12 23:30N 52°16' W 007°02'3 4.9
2017-Sep-12 23:00N 52°15' W 006°58'4 8.7
2017-Sep-12 22:31N 52°10' W 006°57'2 3.0
2017-Sep-12 22:00N 52°09' W 006°58'1 1.1
2017-Sep-12 21:25N 52°10' W 006°58'0 0.0
2017-Sep-12 20:55N 52°10' W 006°58'0 0.1
2017-Sep-12 20:25N 52°10' W 006°58'0 0.0
2017-Sep-12 19:55N 52°10' W 006°58'0 0.0
2017-Sep-12 19:22N 52°10' W 006°58'0 0.0
2017-Sep-12 18:55N 52°10' W 006°58'0 0.0
2017-Sep-12 18:31N 52°10' W 006°58'0 0.0
2017-Sep-12 17:51N 52°10' W 006°58'0 0.0
2017-Sep-12 17:25N 52°10' W 006°58'0 0.1
2017-Sep-12 17:00N 52°10' W 006°58'0 0.0
2017-Sep-12 16:30N 52°10' W 006°58'0 0.0
2017-Sep-12 16:00N 52°10' W 006°58'0 0.0
2017-Sep-12 15:31N 52°10' W 006°58'0 0.0
2017-Sep-12 15:01N 52°10' W 006°58'0 0.0
2017-Sep-12 14:30N 52°10' W 006°58'0 0.0
2017-Sep-12 13:58N 52°10' W 006°58'0 0.0
2017-Sep-12 13:30N 52°10' W 006°58'0 0.0
2017-Sep-12 12:55N 52°10' W 006°58'0 0.0
2017-Sep-12 12:31N 52°10' W 006°58'0 0.1
2017-Sep-12 12:01N 52°10' W 006°58'0 0.0
2017-Sep-12 11:30N 52°10' W 006°58'0 0.0
2017-Sep-12 11:00N 52°10' W 006°58'0 0.0
2017-Sep-12 10:30N 52°10' W 006°58'0 0.0
2017-Sep-12 10:00N 52°10' W 006°58'1 1.7
2017-Sep-12 09:30N 52°09' W 006°58'4 7.9
2017-Sep-12 09:00N 52°05' W 006°59'510.9
2017-Sep-12 08:30N 51°59' W 006°59'510.9
2017-Sep-12 08:00N 51°54' W 006°59'610.9
2017-Sep-12 07:30N 51°48' W 006°58'97 6.5
2017-Sep-11 16:33N 50°21' W 005°52'50 3.1
2017-Sep-11 00:19N 50°03' W 004°39'3 4.8
2017-Sep-10 23:44N 50°04' W 004°35'1 4.7
2017-Sep-10 23:30N 50°04' W 004°33'2 5.0
2017-Sep-10 23:00N 50°04' W 004°29'3 5.3
2017-Sep-10 22:30N 50°04' W 004°25'3 5.0
2017-Sep-10 22:00N 50°04' W 004°21'2 4.5
2017-Sep-10 21:30N 50°04' W 004°18'3 4.4
2017-Sep-10 20:55N 50°04' W 004°14'2 3.8
2017-Sep-10 20:23N 50°05' W 004°11'2 3.7
2017-Sep-10 19:59N 50°05' W 004°08'2 3.7
2017-Sep-10 19:30N 50°05' W 004°06'2 3.8
2017-Sep-10 19:00N 50°06' W 004°03'2 4.2
2017-Sep-10 18:30N 50°06' W 003°60'3 4.5
2017-Sep-10 17:56N 50°07' W 003°56'2 4.6
2017-Sep-10 17:25N 50°07' W 003°52'2 5.1
2017-Sep-10 17:00N 50°08' W 003°49'3 5.8
2017-Sep-10 16:30N 50°08' W 003°44'3 6.3
2017-Sep-10 16:00N 50°09' W 003°40'3 6.1
2017-Sep-10 15:30N 50°09' W 003°35'3 6.0
2017-Sep-10 15:00N 50°10' W 003°31'6 6.0
2017-Sep-10 14:00N 50°12' W 003°22'3 6.7
2017-Sep-10 13:30N 50°13' W 003°16'3 6.7
2017-Sep-10 13:00N 50°13' W 003°11'3 6.5
2017-Sep-10 12:30N 50°14' W 003°06'3 6.5
2017-Sep-10 12:00N 50°15' W 003°01'3 6.2
2017-Sep-10 11:30N 50°16' W 002°57'3 6.0
2017-Sep-10 11:00N 50°16' W 002°52'3 5.9
2017-Sep-10 10:30N 50°17' W 002°48'3 5.7
2017-Sep-10 10:00N 50°17' W 002°43'3 6.3
2017-Sep-10 09:30N 50°18' W 002°38'69 9.3
2017-Sep-10 02:01N 50°29' W 000°51'20 6.5
2017-Sep-09 22:53N 50°30' W 000°19'6 5.2
2017-Sep-09 21:41N 50°31' W 000°09'1 6.5
2017-Sep-09 21:30N 50°31' W 000°07'3 6.9
2017-Sep-09 21:00N 50°32' W 000°02'4 7.5
2017-Sep-09 20:30N 50°33' E 000°04'4 7.9
2017-Sep-09 20:00N 50°34' E 000°10'5 8.2
2017-Sep-09 19:26N 50°35' E 000°17'4 8.7
2017-Sep-09 19:00N 50°36' E 000°22'5 9.0
2017-Sep-09 18:30N 50°38' E 000°29'5 9.8
2017-Sep-09 18:00N 50°40' E 000°36'611.3
2017-Sep-09 17:30N 50°43' E 000°43'510.7
2017-Sep-09 17:00N 50°46' E 000°50'510.1
2017-Sep-09 16:30N 50°49' E 000°57'9 9.4
2017-Sep-09 15:33N 50°54' E 001°08'2 8.9
2017-Sep-09 15:21N 50°55' E 001°10'3 8.5
2017-Sep-09 14:59N 50°57' E 001°14'4 7.9
2017-Sep-09 14:30N 50°60' E 001°19'6 7.4
2017-Sep-09 13:39N 51°04' E 001°26'1 7.7
2017-Sep-09 13:29N 51°05' E 001°28'4 8.3
2017-Sep-09 13:00N 51°07' E 001°33'4 8.9
2017-Sep-09 12:30N 51°10' E 001°38'3 6.2
2017-Sep-09 12:00N 51°12' E 001°42'3 6.5
2017-Sep-09 11:30N 51°15' E 001°46'4 8.1
2017-Sep-09 11:00N 51°18' E 001°49'4 8.6
2017-Sep-09 10:30N 51°22' E 001°53'4 8.6
2017-Sep-09 10:00N 51°25' E 001°57'4 8.4
2017-Sep-09 09:30N 51°28' E 002°01'4 8.6
2017-Sep-09 09:00N 51°32' E 002°06'4 8.9
2017-Sep-09 08:30N 51°35' E 002°10'42 7.2
2017-Sep-09 02:40N 52°08' E 002°53'1 6.0
2017-Sep-09 02:30N 52°09' E 002°55'3 6.2
2017-Sep-09 01:59N 52°11' E 002°58'3 6.7
2017-Sep-09 01:30N 52°14' E 003°01'100 7.4
2017-Sep-08 11:59N 53°31' E 004°47'3 7.2
2017-Sep-08 11:30N 53°32' E 004°53'  
Track history (hours):
 
Tides and Currents Weather Stations Pressure Air Temp Water Temp Dewpoint Dewpoint Depression Visibility Wind Speed Wind Dir Waves Ship Positions

Claire

Last reported at 2017-Sep-18 11:20 UTC. Time now 2017-Sep-23 05:59 UTC.
Position N 54°56' E 015°13'.

Length 90 m; draft 4 m.

Type: Cargo ship. MMSI: 244790234.

Date/timePositionNaut miles runAvg speedWind from/ knotsBaromVisibWave heightAir tempDewpointWater temp
2017-Sep-18 11:20N 54°56' E 015°13'411.2
2017-Sep-18 11:00N 54°55' E 015°07'611.2
2017-Sep-18 10:30N 54°55' E 014°57'611.2
2017-Sep-18 10:00N 54°55' E 014°47'611.2
2017-Sep-18 09:30N 54°55' E 014°37'611.4
2017-Sep-18 09:00N 54°55' E 014°28'1311.4
2017-Sep-18 07:51N 54°55' E 014°05'511.1
2017-Sep-18 07:24N 54°54' E 013°56'611.3
2017-Sep-18 06:52N 54°54' E 013°46'1211.3
2017-Sep-18 05:46N 54°52' E 013°24'511.4
2017-Sep-18 05:20N 54°50' E 013°16'611.4
2017-Sep-18 04:49N 54°49' E 013°06'311.3
2017-Sep-18 04:30N 54°48' E 013°00'811.2
2017-Sep-18 03:48N 54°45' E 012°47'311.0
2017-Sep-18 03:30N 54°44' E 012°42'1111.2
2017-Sep-18 02:32N 54°38' E 012°26'011.2
2017-Sep-18 02:30N 54°38' E 012°26'810.7
2017-Sep-18 01:45N 54°32' E 012°17'411.2
2017-Sep-18 01:24N 54°28' E 012°15'1410.0
2017-Sep-18 00:02N 54°24' E 011°52'011.0
2017-Sep-17 23:59N 54°24' E 011°51'510.3
2017-Sep-17 23:30N 54°25' E 011°43'611.4
2017-Sep-17 23:00N 54°28' E 011°34'611.2
2017-Sep-17 22:30N 54°30' E 011°25'510.9
2017-Sep-17 22:00N 54°33' E 011°17'510.4
2017-Sep-17 21:30N 54°34' E 011°09'510.7
2017-Sep-17 21:00N 54°35' E 010°59'611.7
2017-Sep-17 20:30N 54°34' E 010°49'611.9
2017-Sep-17 20:00N 54°33' E 010°39'55 5.6
2017-Sep-17 10:07N 54°04' E 009°19'1 8.4
2017-Sep-17 09:59N 54°03' E 009°18'4 8.2
2017-Sep-17 09:30N 53°59' E 009°17'4 8.2
2017-Sep-17 09:00N 53°56' E 009°13'4 7.2
2017-Sep-17 08:30N 53°54' E 009°09'0 0.0
2017-Sep-17 08:00N 53°54' E 009°09'2 3.0
2017-Sep-17 07:30N 53°53' E 009°06'1 1.5
2017-Sep-17 07:00N 53°53' E 009°05'4 7.2
2017-Sep-17 06:30N 53°51' E 008°60'612.7
2017-Sep-17 06:00N 53°50' E 008°49'611.3
2017-Sep-17 05:30N 53°54' E 008°42'612.0
2017-Sep-17 05:00N 53°58' E 008°34'612.1
2017-Sep-17 04:30N 53°59' E 008°24'612.8
2017-Sep-17 04:00N 53°59' E 008°13'510.2
2017-Sep-17 03:30N 53°59' E 008°05'5 9.7
2017-Sep-17 03:00N 53°57' E 007°57'5 9.7
2017-Sep-17 02:30N 53°56' E 007°49'6 9.4
2017-Sep-17 01:52N 53°55' E 007°39'4 9.5
2017-Sep-17 01:29N 53°54' E 007°33'6 9.4
2017-Sep-17 00:52N 53°53' E 007°23'4 9.4
2017-Sep-17 00:27N 53°52' E 007°17'7710.0
2017-Sep-16 16:45N 53°30' E 005°12'313.5
2017-Sep-16 16:31N 53°29' E 005°07'713.8
2017-Sep-16 16:01N 53°26' E 004°56'713.6
2017-Sep-16 15:30N 53°24' E 004°46'2013.3
2017-Sep-16 13:58N 53°06' E 004°28'713.9
2017-Sep-16 13:29N 53°00' E 004°22'11411.1
2017-Sep-16 03:11N 51°33' E 002°22'2 8.6
2017-Sep-16 02:58N 51°32' E 002°20'4 8.8
2017-Sep-16 02:30N 51°28' E 002°16'5 9.2
2017-Sep-16 02:00N 51°25' E 002°12'5 9.8
2017-Sep-16 01:30N 51°20' E 002°09'5 9.8
2017-Sep-16 01:00N 51°16' E 002°05'5 9.3
2017-Sep-16 00:30N 51°13' E 001°59'5 9.8
2017-Sep-16 00:00N 51°10' E 001°52'510.1
2017-Sep-15 23:31N 51°08' E 001°46'510.5
2017-Sep-15 23:00N 51°05' E 001°39'510.9
2017-Sep-15 22:31N 51°01' E 001°33'711.5
2017-Sep-15 21:53N 50°55' E 001°25'5911.3
2017-Sep-15 16:37N 50°22' E 000°08'413.2
2017-Sep-15 16:20N 50°21' E 000°02'513.1
2017-Sep-15 15:58N 50°20' W 000°05'6512.1
2017-Sep-15 10:37N 50°14' W 001°46'310.0
2017-Sep-15 10:21N 50°14' W 001°50'4010.1
2017-Sep-15 06:22N 50°11' W 002°52'411.3
2017-Sep-15 06:00N 50°10' W 002°59'611.0
2017-Sep-15 05:30N 50°09' W 003°07'611.0
2017-Sep-15 05:00N 50°08' W 003°15'611.3
2017-Sep-15 04:30N 50°07' W 003°24'611.4
2017-Sep-15 04:00N 50°06' W 003°33'611.6
2017-Sep-15 03:30N 50°05' W 003°41'611.7
2017-Sep-15 03:00N 50°03' W 003°50'611.6
2017-Sep-15 02:30N 50°02' W 003°59'611.5
2017-Sep-15 02:00N 50°00' W 004°08'611.5
2017-Sep-15 01:30N 49°59' W 004°17'611.5
2017-Sep-15 01:00N 49°58' W 004°25'611.5
2017-Sep-15 00:30N 49°57' W 004°34'611.6
2017-Sep-15 00:00N 49°55' W 004°43'1311.4
2017-Sep-14 22:53N 49°53' W 005°02'137 9.4
2017-Sep-14 08:13N 51°54' W 006°45'211.0
2017-Sep-14 08:00N 51°56' W 006°47'611.1
2017-Sep-14 07:30N 52°00' W 006°52'611.0
2017-Sep-14 07:00N 52°05' W 006°56'5 9.6
2017-Sep-14 06:30N 52°10' W 006°58'5 9.2
2017-Sep-14 06:00N 52°15' W 006°59'2 4.0
2017-Sep-14 05:25N 52°16' W 007°02'0 0.0
2017-Sep-14 04:58N 52°16' W 007°02'0 0.0
2017-Sep-14 04:25N 52°16' W 007°02'0 0.0
2017-Sep-14 03:58N 52°16' W 007°02'0 0.0
2017-Sep-14 03:25N 52°16' W 007°02'0 0.0
2017-Sep-14 02:58N 52°16' W 007°02'0 0.0
2017-Sep-14 02:28N 52°16' W 007°02'0 0.0
2017-Sep-14 01:58N 52°16' W 007°02'0 0.0
2017-Sep-14 01:28N 52°16' W 007°02'0 0.0
2017-Sep-14 00:58N 52°16' W 007°02'0 0.0
2017-Sep-14 00:28N 52°16' W 007°02'0 0.0
2017-Sep-13 23:58N 52°16' W 007°02'0 0.0
2017-Sep-13 23:25N 52°16' W 007°02'0 0.0
2017-Sep-13 22:55N 52°16' W 007°02'0 0.0
2017-Sep-13 22:22N 52°16' W 007°02'0 0.0
2017-Sep-13 21:55N 52°16' W 007°02'0 0.0
2017-Sep-13 21:28N 52°16' W 007°02'0 0.0
2017-Sep-13 20:55N 52°16' W 007°02'0 0.0
2017-Sep-13 20:28N 52°16' W 007°02'0 0.0
2017-Sep-13 19:58N 52°16' W 007°02'0 0.0
2017-Sep-13 19:28N 52°16' W 007°02'0 0.0
2017-Sep-13 18:49N 52°16' W 007°02'0 0.0
2017-Sep-13 18:25N 52°16' W 007°02'0 0.0
2017-Sep-13 17:55N 52°16' W 007°02'0 0.0
2017-Sep-13 17:28N 52°16' W 007°02'0 0.0
2017-Sep-13 16:55N 52°16' W 007°02'0 0.0
2017-Sep-13 16:28N 52°16' W 007°02'0 0.0
2017-Sep-13 15:55N 52°16' W 007°02'0 0.0
2017-Sep-13 15:28N 52°16' W 007°02'0 0.0
2017-Sep-13 14:55N 52°16' W 007°02'0 0.0
2017-Sep-13 14:25N 52°16' W 007°02'0 0.0
2017-Sep-13 13:58N 52°16' W 007°02'0 0.0
2017-Sep-13 13:28N 52°16' W 007°02'0 0.0
2017-Sep-13 12:55N 52°16' W 007°02'0 0.0
2017-Sep-13 12:28N 52°16' W 007°02'0 0.0
2017-Sep-13 11:55N 52°16' W 007°02'0 0.0
2017-Sep-13 11:28N 52°16' W 007°02'0 0.0
2017-Sep-13 10:58N 52°16' W 007°02'0 0.0
2017-Sep-13 10:28N 52°16' W 007°02'0 0.0
2017-Sep-13 09:58N 52°16' W 007°02'0 0.0
2017-Sep-13 09:25N 52°16' W 007°02'0 0.0
2017-Sep-13 08:58N 52°16' W 007°02'0 0.0
2017-Sep-13 08:25N 52°16' W 007°02'0 0.0
2017-Sep-13 07:55N 52°16' W 007°02'0 0.0
2017-Sep-13 07:28N 52°16' W 007°02'0 0.0
2017-Sep-13 06:55N 52°16' W 007°02'0 0.0
2017-Sep-13 06:28N 52°16' W 007°02'0 0.0
2017-Sep-13 05:58N 52°16' W 007°02'0 0.0
2017-Sep-13 05:28N 52°16' W 007°02'0 0.0
2017-Sep-13 04:58N 52°16' W 007°02'0 0.0
2017-Sep-13 04:28N 52°16' W 007°02'0 0.0
2017-Sep-13 03:58N 52°16' W 007°02'0 0.0
2017-Sep-13 03:25N 52°16' W 007°02'0 0.0
2017-Sep-13 02:58N 52°16' W 007°02'0 0.0
2017-Sep-13 02:28N 52°16' W 007°02'0 0.0
2017-Sep-13 01:55N 52°16' W 007°02'0 0.0
2017-Sep-13 01:28N 52°16' W 007°02'0 0.0
2017-Sep-13 00:58N 52°16' W 007°02'0 0.0
2017-Sep-13 00:25N 52°16' W 007°02'0 0.0
2017-Sep-13 00:00N 52°16' W 007°02'0 0.3
2017-Sep-12 23:30N 52°16' W 007°02'3 4.9
2017-Sep-12 23:00N 52°15' W 006°58'4 8.7
2017-Sep-12 22:31N 52°10' W 006°57'2 3.0
2017-Sep-12 22:00N 52°09' W 006°58'1 1.1
2017-Sep-12 21:25N 52°10' W 006°58'0 0.0
2017-Sep-12 20:55N 52°10' W 006°58'0 0.1
2017-Sep-12 20:25N 52°10' W 006°58'0 0.0
2017-Sep-12 19:55N 52°10' W 006°58'0 0.0
2017-Sep-12 19:22N 52°10' W 006°58'0 0.0
2017-Sep-12 18:55N 52°10' W 006°58'0 0.0
2017-Sep-12 18:31N 52°10' W 006°58'0 0.0
2017-Sep-12 17:51N 52°10' W 006°58'0 0.0
2017-Sep-12 17:25N 52°10' W 006°58'0 0.1
2017-Sep-12 17:00N 52°10' W 006°58'0 0.0
2017-Sep-12 16:30N 52°10' W 006°58'0 0.0
2017-Sep-12 16:00N 52°10' W 006°58'0 0.0
2017-Sep-12 15:31N 52°10' W 006°58'0 0.0
2017-Sep-12 15:01N 52°10' W 006°58'0 0.0
2017-Sep-12 14:30N 52°10' W 006°58'0 0.0
2017-Sep-12 13:58N 52°10' W 006°58'0 0.0
2017-Sep-12 13:30N 52°10' W 006°58'0 0.0
2017-Sep-12 12:55N 52°10' W 006°58'0 0.0
2017-Sep-12 12:31N 52°10' W 006°58'0 0.1
2017-Sep-12 12:01N 52°10' W 006°58'0 0.0
2017-Sep-12 11:30N 52°10' W 006°58'0 0.0
2017-Sep-12 11:00N 52°10' W 006°58'0 0.0
2017-Sep-12 10:30N 52°10' W 006°58'0 0.0
2017-Sep-12 10:00N 52°10' W 006°58'1 1.7
2017-Sep-12 09:30N 52°09' W 006°58'4 7.9
2017-Sep-12 09:00N 52°05' W 006°59'510.9
2017-Sep-12 08:30N 51°59' W 006°59'510.9
2017-Sep-12 08:00N 51°54' W 006°59'610.9
2017-Sep-12 07:30N 51°48' W 006°58'97 6.5
2017-Sep-11 16:33N 50°21' W 005°52'50 3.1
2017-Sep-11 00:19N 50°03' W 004°39'3 4.8
2017-Sep-10 23:44N 50°04' W 004°35'1 4.7
2017-Sep-10 23:30N 50°04' W 004°33'2 5.0
2017-Sep-10 23:00N 50°04' W 004°29'3 5.3
2017-Sep-10 22:30N 50°04' W 004°25'3 5.0
2017-Sep-10 22:00N 50°04' W 004°21'2 4.5
2017-Sep-10 21:30N 50°04' W 004°18'3 4.4
2017-Sep-10 20:55N 50°04' W 004°14'2 3.8
2017-Sep-10 20:23N 50°05' W 004°11'2 3.7
2017-Sep-10 19:59N 50°05' W 004°08'2 3.7
2017-Sep-10 19:30N 50°05' W 004°06'2 3.8
2017-Sep-10 19:00N 50°06' W 004°03'2 4.2
2017-Sep-10 18:30N 50°06' W 003°60'3 4.5
2017-Sep-10 17:56N 50°07' W 003°56'2 4.6
2017-Sep-10 17:25N 50°07' W 003°52'2 5.1
2017-Sep-10 17:00N 50°08' W 003°49'3 5.8
2017-Sep-10 16:30N 50°08' W 003°44'3 6.3
2017-Sep-10 16:00N 50°09' W 003°40'3 6.1
2017-Sep-10 15:30N 50°09' W 003°35'3 6.0
2017-Sep-10 15:00N 50°10' W 003°31'6 6.0
2017-Sep-10 14:00N 50°12' W 003°22'3 6.7
2017-Sep-10 13:30N 50°13' W 003°16'3 6.7
2017-Sep-10 13:00N 50°13' W 003°11'3 6.5
2017-Sep-10 12:30N 50°14' W 003°06'3 6.5
2017-Sep-10 12:00N 50°15' W 003°01'3 6.2
2017-Sep-10 11:30N 50°16' W 002°57'3 6.0
2017-Sep-10 11:00N 50°16' W 002°52'3 5.9
2017-Sep-10 10:30N 50°17' W 002°48'3 5.7
2017-Sep-10 10:00N 50°17' W 002°43'3 6.3
2017-Sep-10 09:30N 50°18' W 002°38'69 9.3
2017-Sep-10 02:01N 50°29' W 000°51'20 6.5
2017-Sep-09 22:53N 50°30' W 000°19'6 5.2
2017-Sep-09 21:41N 50°31' W 000°09'1 6.5
2017-Sep-09 21:30N 50°31' W 000°07'3 6.9
2017-Sep-09 21:00N 50°32' W 000°02'4 7.5
2017-Sep-09 20:30N 50°33' E 000°04'4 7.9
2017-Sep-09 20:00N 50°34' E 000°10'5 8.2
2017-Sep-09 19:26N 50°35' E 000°17'4 8.7
2017-Sep-09 19:00N 50°36' E 000°22'5 9.0
2017-Sep-09 18:30N 50°38' E 000°29'5 9.8
2017-Sep-09 18:00N 50°40' E 000°36'611.3
2017-Sep-09 17:30N 50°43' E 000°43'510.7
2017-Sep-09 17:00N 50°46' E 000°50'510.1
2017-Sep-09 16:30N 50°49' E 000°57'9 9.4
2017-Sep-09 15:33N 50°54' E 001°08'2 8.9
2017-Sep-09 15:21N 50°55' E 001°10'3 8.5
2017-Sep-09 14:59N 50°57' E 001°14'4 7.9
2017-Sep-09 14:30N 50°60' E 001°19'6 7.4
2017-Sep-09 13:39N 51°04' E 001°26'1 7.7
2017-Sep-09 13:29N 51°05' E 001°28'4 8.3
2017-Sep-09 13:00N 51°07' E 001°33'4 8.9
2017-Sep-09 12:30N 51°10' E 001°38'3 6.2
2017-Sep-09 12:00N 51°12' E 001°42'3 6.5
2017-Sep-09 11:30N 51°15' E 001°46'4 8.1
2017-Sep-09 11:00N 51°18' E 001°49'4 8.6
2017-Sep-09 10:30N 51°22' E 001°53'4 8.6
2017-Sep-09 10:00N 51°25' E 001°57'4 8.4
2017-Sep-09 09:30N 51°28' E 002°01'4 8.6
2017-Sep-09 09:00N 51°32' E 002°06'4 8.9
2017-Sep-09 08:30N 51°35' E 002°10'42 7.2
2017-Sep-09 02:40N 52°08' E 002°53'1 6.0
2017-Sep-09 02:30N 52°09' E 002°55'3 6.2
2017-Sep-09 01:59N 52°11' E 002°58'3 6.7
2017-Sep-09 01:30N 52°14' E 003°01'100 7.4
2017-Sep-08 11:59N 53°31' E 004°47'3 7.2
2017-Sep-08 11:30N 53°32' E 004°53'  

Dump ship's entire track history